Time;durP1;ratioP1;P1;durP2;ratioP2;P2;SDS_P1;SDS_P2;PMS_P1;PMS_P2;Temp;Humidity;BMP_temperature;BMP_pressure;BME280_temperature;BME280_humidity;BME280_pressure;Samples;Min_cycle;Max_cycle;Signal;HPM_P1;HPM_P2
2021/04/14 00:01:18;;;;;;;12.93;10.60;;;11.60;80.00;;;;;;5013481;28;20460;-66
2021/04/14 00:03:45;;;;;;;14.27;11.60;;;11.60;80.00;;;;;;5013211;28;20482;-66
2021/04/14 00:06:11;;;;;;;17.15;12.05;;;11.60;80.00;;;;;;5023564;28;20076;-66
2021/04/14 00:08:37;;;;;;;18.63;12.50;;;11.70;79.80;;;;;;5011962;28;20018;-66
2021/04/14 00:11:06;;;;;;;36.42;15.65;;;11.70;79.70;;;;;;5002730;28;20036;-66
2021/04/14 00:13:41;;;;;;;27.63;14.90;;;11.60;79.50;;;;;;5011975;28;20462;-66
2021/04/14 00:16:08;;;;;;;38.47;16.50;;;11.60;79.40;;;;;;5016877;28;20030;-66
2021/04/14 00:18:34;;;;;;;37.20;16.75;;;11.70;79.50;;;;;;5017069;28;20029;-66
2021/04/14 00:21:00;;;;;;;45.40;19.98;;;11.60;79.30;;;;;;5016658;28;20033;-66
2021/04/14 00:23:25;;;;;;;48.08;19.02;;;11.60;79.20;;;;;;5016830;28;20030;-66
2021/04/14 00:25:52;;;;;;;39.30;18.35;;;11.60;79.30;;;;;;5015573;28;20038;-66
2021/04/14 00:28:22;;;;;;;35.20;15.82;;;11.60;79.10;;;;;;5016408;28;20030;-66
2021/04/14 00:30:48;;;;;;;27.85;16.27;;;11.70;79.00;;;;;;5016602;28;20065;-66
2021/04/14 00:33:14;;;;;;;20.90;13.15;;;11.60;79.00;;;;;;5016549;28;20037;-66
2021/04/14 00:35:40;;;;;;;19.48;12.48;;;11.70;78.90;;;;;;5016713;28;20049;-64
2021/04/14 00:38:07;;;;;;;19.17;11.93;;;11.60;78.60;;;;;;5016856;28;20029;-66
2021/04/14 00:40:36;;;;;;;16.10;11.25;;;11.60;78.60;;;;;;5031580;28;20025;-64
2021/04/14 00:43:22;;;;;;;15.80;10.82;;;11.60;78.50;;;;;;5035696;28;20029;-66
2021/04/14 00:45:48;;;;;;;13.55;10.70;;;11.50;78.50;;;;;;5027279;28;20092;-67
2021/04/14 00:48:14;;;;;;;16.67;11.07;;;11.50;78.60;;;;;;5016555;28;20026;-66
2021/04/14 00:50:40;;;;;;;15.43;12.00;;;11.40;78.60;;;;;;5016349;28;20033;-64
2021/04/14 00:53:07;;;;;;;13.93;11.48;;;11.40;78.50;;;;;;5016077;28;20022;-64
2021/04/14 00:55:34;;;;;;;17.40;10.73;;;11.30;78.50;;;;;;5015954;28;20057;-64
2021/04/14 00:58:00;;;;;;;14.20;10.13;;;11.30;78.40;;;;;;5013136;28;20096;-64
2021/04/14 01:00:25;;;;;;;19.15;11.57;;;11.20;78.40;;;;;;5014910;28;20080;-66
2021/04/14 01:02:51;;;;;;;14.25;10.50;;;11.20;78.80;;;;;;5015269;28;20046;-67
2021/04/14 01:05:19;;;;;;;15.98;10.70;;;11.10;78.60;;;;;;5011308;28;20535;-66
2021/04/14 01:07:48;;;;;;;16.65;11.43;;;11.00;78.60;;;;;;5000817;28;20053;-66
2021/04/14 01:10:16;;;;;;;12.32;9.68;;;10.90;78.80;;;;;;5020515;28;20112;-66
2021/04/14 01:12:43;;;;;;;12.55;9.57;;;10.90;79.00;;;;;;5035276;28;20037;-66
2021/04/14 01:15:12;;;;;;;15.57;11.73;;;10.80;78.90;;;;;;5035636;28;20441;-66
2021/04/14 01:17:38;;;;;;;14.27;11.20;;;10.70;79.10;;;;;;5035563;28;20036;-66
2021/04/14 01:20:05;;;;;;;18.60;13.32;;;10.60;79.20;;;;;;5035587;28;20461;-66
2021/04/14 01:22:31;;;;;;;16.50;12.48;;;10.50;79.70;;;;;;5017722;28;20619;-66
2021/04/14 01:24:56;;;;;;;16.80;12.18;;;10.40;80.00;;;;;;5034711;28;20108;-66
2021/04/14 01:27:22;;;;;;;15.88;11.57;;;10.30;80.60;;;;;;5033761;28;20025;-66
2021/04/14 01:29:48;;;;;;;14.95;10.85;;;10.20;80.90;;;;;;5015096;28;20026;-66
2021/04/14 01:32:13;;;;;;;17.08;12.18;;;10.20;81.50;;;;;;5014124;28;20025;-66
2021/04/14 01:34:39;;;;;;;13.82;10.43;;;10.20;81.70;;;;;;5015402;28;20026;-66
2021/04/14 01:37:05;;;;;;;13.00;10.00;;;10.20;82.00;;;;;;5015466;28;20533;-66
2021/04/14 01:39:31;;;;;;;16.30;11.48;;;10.20;82.10;;;;;;5021525;28;20442;-66
2021/04/14 01:41:56;;;;;;;13.45;10.93;;;10.20;82.30;;;;;;5034624;28;20084;-66
2021/04/14 01:44:22;;;;;;;12.63;10.30;;;10.30;82.30;;;;;;5035084;28;20027;-66
2021/04/14 01:46:48;;;;;;;12.45;10.30;;;10.30;82.20;;;;;;5035332;28;20021;-66
2021/04/14 01:49:14;;;;;;;15.10;10.82;;;10.30;82.20;;;;;;5035211;28;20036;-66
2021/04/14 01:51:40;;;;;;;15.80;10.75;;;10.30;82.20;;;;;;5034949;28;20021;-66
2021/04/14 01:54:06;;;;;;;14.00;11.00;;;10.40;82.20;;;;;;5006193;28;20061;-66
2021/04/14 01:56:32;;;;;;;15.80;11.32;;;10.40;82.00;;;;;;4995718;28;20363;-66
2021/04/14 01:58:57;;;;;;;14.38;11.63;;;10.50;82.20;;;;;;4995396;28;20154;-66
2021/04/14 02:01:23;;;;;;;15.88;11.65;;;10.50;82.00;;;;;;4995336;28;20027;-65
2021/04/14 02:03:49;;;;;;;16.45;11.70;;;10.50;82.10;;;;;;5014409;28;20030;-64
2021/04/14 02:06:16;;;;;;;14.00;11.10;;;10.50;81.80;;;;;;5014636;28;20382;-64
2021/04/14 02:08:43;;;;;;;16.05;11.55;;;10.50;81.70;;;;;;5012595;28;20493;-65
2021/04/14 02:11:12;;;;;;;17.65;11.60;;;10.50;81.30;;;;;;5010762;28;20052;-65
2021/04/14 02:13:40;;;;;;;15.05;11.18;;;10.40;81.30;;;;;;5012777;28;20121;-65
2021/04/14 02:16:07;;;;;;;18.75;11.63;;;10.50;81.70;;;;;;5014021;28;20034;-66
2021/04/14 02:18:33;;;;;;;15.02;11.73;;;10.40;81.70;;;;;;5011688;28;20037;-65
2021/04/14 02:21:00;;;;;;;16.63;12.27;;;10.50;81.70;;;;;;5012063;28;20382;-64
2021/04/14 02:23:29;;;;;;;17.75;12.30;;;10.50;81.60;;;;;;5012353;28;20452;-64
2021/04/14 02:25:59;;;;;;;16.40;10.73;;;10.50;81.70;;;;;;5011656;28;20525;-65
2021/04/14 02:28:25;;;;;;;15.52;11.02;;;10.50;81.40;;;;;;5012306;28;20037;-64
2021/04/14 02:30:51;;;;;;;14.43;11.15;;;10.40;81.20;;;;;;5012235;28;20465;-65
2021/04/14 02:33:18;;;;;;;15.30;10.98;;;10.40;81.30;;;;;;5013285;28;20022;-64
2021/04/14 02:35:44;;;;;;;17.77;10.98;;;10.40;81.30;;;;;;5013745;28;20026;-66
2021/04/14 02:38:10;;;;;;;17.27;12.02;;;10.30;81.10;;;;;;5013803;28;20096;-64
2021/04/14 02:40:36;;;;;;;16.65;10.93;;;10.30;81.10;;;;;;5030977;28;20036;-64
2021/04/14 02:43:03;;;;;;;15.48;11.73;;;10.30;81.30;;;;;;5020598;28;20026;-64
2021/04/14 02:45:31;;;;;;;16.27;11.88;;;10.30;81.40;;;;;;5012896;28;20037;-64
2021/04/14 02:47:57;;;;;;;17.67;12.43;;;10.30;81.50;;;;;;5013402;28;20124;-64
2021/04/14 02:50:23;;;;;;;14.60;10.95;;;10.30;81.10;;;;;;5013549;28;20473;-64
2021/04/14 02:52:49;;;;;;;17.83;12.13;;;10.30;81.10;;;;;;5013546;28;20022;-64
2021/04/14 02:55:17;;;;;;;16.45;11.95;;;10.30;81.10;;;;;;5013459;28;20083;-64
2021/04/14 02:57:43;;;;;;;17.27;12.73;;;10.30;81.20;;;;;;5008905;28;20019;-64
2021/04/14 03:00:10;;;;;;;15.48;12.07;;;10.20;81.10;;;;;;5013358;28;20519;-64
2021/04/14 03:02:36;;;;;;;15.30;11.65;;;10.20;81.00;;;;;;4999150;28;20509;-64
2021/04/14 03:05:05;;;;;;;15.20;12.10;;;10.20;81.00;;;;;;5009499;28;20596;-65
2021/04/14 03:07:30;;;;;;;14.55;11.27;;;10.20;80.90;;;;;;4994056;28;20037;-64
2021/04/14 03:09:56;;;;;;;15.70;11.90;;;10.20;80.90;;;;;;5005681;28;20030;-64
2021/04/14 03:12:22;;;;;;;12.13;10.25;;;10.10;80.60;;;;;;5012980;28;20389;-64
2021/04/14 03:14:48;;;;;;;14.82;11.13;;;10.10;80.70;;;;;;5013261;28;20018;-64
2021/04/14 03:17:14;;;;;;;13.55;10.85;;;10.00;80.80;;;;;;5009516;28;20433;-65
2021/04/14 03:19:39;;;;;;;15.65;12.02;;;10.00;81.00;;;;;;4999726;28;20089;-64
2021/04/14 03:22:05;;;;;;;15.77;11.20;;;10.00;81.50;;;;;;5013109;28;20026;-64
2021/04/14 03:24:31;;;;;;;14.07;11.13;;;10.00;81.50;;;;;;5013162;28;20381;-65
2021/04/14 03:26:57;;;;;;;16.90;11.18;;;10.10;81.50;;;;;;5013066;28;20481;-67
2021/04/14 03:29:23;;;;;;;16.15;10.70;;;10.10;81.40;;;;;;5013205;28;20156;-64
2021/04/14 03:31:49;;;;;;;14.57;11.68;;;10.10;81.30;;;;;;5013230;28;20069;-65
2021/04/14 03:34:14;;;;;;;16.35;11.32;;;10.10;81.00;;;;;;5012904;28;20604;-65
2021/04/14 03:36:40;;;;;;;15.70;11.85;;;10.20;81.10;;;;;;5013009;28;20029;-65
2021/04/14 03:39:07;;;;;;;14.70;11.18;;;10.20;81.00;;;;;;5017251;28;20023;-65
2021/04/14 03:41:33;;;;;;;13.48;10.80;;;10.20;80.90;;;;;;5032744;28;20026;-65
2021/04/14 03:43:59;;;;;;;14.98;11.50;;;10.30;80.80;;;;;;5032670;28;20104;-65
2021/04/14 03:46:25;;;;;;;13.05;11.20;;;10.40;80.60;;;;;;5019982;28;20157;-66
2021/04/14 03:48:52;;;;;;;15.52;11.48;;;10.40;80.50;;;;;;5003012;28;20720;-65
2021/04/14 03:51:18;;;;;;;14.93;11.77;;;10.50;80.30;;;;;;5004805;28;20023;-65
2021/04/14 03:53:44;;;;;;;13.18;10.73;;;10.60;80.10;;;;;;4997156;28;20101;-65
2021/04/14 03:56:13;;;;;;;14.95;11.35;;;10.70;80.10;;;;;;4997356;28;20105;-65
2021/04/14 03:58:40;;;;;;;15.65;11.93;;;10.80;80.10;;;;;;4997030;28;20058;-66
2021/04/14 04:01:11;;;;;;;15.02;11.57;;;10.90;80.00;;;;;;5013496;28;20026;-65
2021/04/14 04:03:36;;;;;;;15.73;11.55;;;11.00;79.90;;;;;;5016420;28;20132;-65
2021/04/14 04:06:03;;;;;;;16.20;11.40;;;11.10;79.80;;;;;;5016395;28;20443;-65
2021/04/14 04:08:28;;;;;;;18.90;12.02;;;11.20;79.70;;;;;;5015292;28;20034;-65
2021/04/14 04:10:54;;;;;;;19.10;12.60;;;11.30;79.80;;;;;;5025582;28;20048;-66
2021/04/14 04:13:20;;;;;;;14.75;11.95;;;11.50;79.60;;;;;;5016654;28;20022;-65
2021/04/14 04:15:46;;;;;;;19.25;12.55;;;11.60;79.50;;;;;;5016597;28;20425;-66
2021/04/14 04:18:12;;;;;;;16.63;11.20;;;11.70;79.10;;;;;;5005602;28;20030;-66
2021/04/14 04:20:38;;;;;;;15.93;12.23;;;11.90;78.60;;;;;;4996597;28;20027;-65
2021/04/14 04:23:05;;;;;;;15.13;11.77;;;11.90;78.10;;;;;;4996787;28;20351;-65
2021/04/14 04:25:32;;;;;;;15.43;11.55;;;12.00;77.80;;;;;;4996437;28;20027;-66
2021/04/14 04:27:58;;;;;;;16.33;10.85;;;12.10;76.90;;;;;;4996895;28;20027;-65
2021/04/14 04:30:25;;;;;;;20.67;15.40;;;12.20;76.70;;;;;;4997250;28;20018;-66
2021/04/14 04:32:51;;;;;;;19.98;14.52;;;12.30;76.50;;;;;;5008787;28;20022;-65
2021/04/14 04:35:17;;;;;;;17.83;12.90;;;12.30;75.90;;;;;;5016620;28;20461;-66
2021/04/14 04:37:42;;;;;;;19.33;13.50;;;12.30;75.20;;;;;;5016429;28;20117;-65
2021/04/14 04:40:09;;;;;;;16.40;12.15;;;12.20;75.20;;;;;;5009912;28;20486;-65
2021/04/14 04:42:35;;;;;;;16.55;12.43;;;12.20;75.40;;;;;;5015843;28;20096;-66
2021/04/14 04:45:01;;;;;;;16.95;12.40;;;12.10;75.30;;;;;;5016567;28;20030;-65
2021/04/14 04:47:27;;;;;;;18.95;13.50;;;12.10;75.30;;;;;;5011689;28;20409;-66
2021/04/14 04:49:53;;;;;;;19.63;14.52;;;12.00;75.60;;;;;;4996718;28;20037;-65
2021/04/14 04:52:20;;;;;;;17.73;13.90;;;12.20;75.60;;;;;;4996672;28;20034;-65
2021/04/14 04:54:46;;;;;;;19.20;14.93;;;12.30;75.40;;;;;;5007223;28;20051;-65
2021/04/14 04:57:11;;;;;;;21.63;15.38;;;12.50;74.60;;;;;;5014457;28;20038;-65
2021/04/14 04:59:37;;;;;;;20.15;13.98;;;12.70;74.40;;;;;;5012695;28;20600;-65
2021/04/14 05:02:03;;;;;;;16.98;13.10;;;12.80;73.80;;;;;;5013578;28;20051;-65
2021/04/14 05:04:29;;;;;;;23.00;13.68;;;12.90;73.00;;;;;;5015410;28;20030;-65
2021/04/14 05:06:54;;;;;;;19.38;13.18;;;12.90;72.10;;;;;;5013522;28;20034;-65
2021/04/14 05:09:21;;;;;;;20.77;14.20;;;12.80;71.70;;;;;;5015079;28;20441;-65
2021/04/14 05:11:47;;;;;;;18.20;13.45;;;12.70;71.50;;;;;;5014707;28;20030;-65
2021/04/14 05:14:13;;;;;;;18.52;13.02;;;12.50;71.50;;;;;;5015305;28;20380;-65
2021/04/14 05:16:39;;;;;;;19.48;13.18;;;12.40;71.70;;;;;;5015204;28;20022;-66
2021/04/14 05:19:05;;;;;;;17.85;13.65;;;12.40;72.20;;;;;;4996725;28;20052;-65
2021/04/14 05:21:33;;;;;;;17.33;13.07;;;12.40;72.00;;;;;;4995623;28;20625;-65
2021/04/14 05:23:58;;;;;;;19.90;14.10;;;12.40;72.10;;;;;;4996023;28;20497;-65
2021/04/14 05:26:26;;;;;;;19.15;14.18;;;12.50;72.30;;;;;;4997984;28;20027;-63
2021/04/14 05:28:52;;;;;;;17.15;12.57;;;12.70;71.70;;;;;;4998864;28;20037;-63
2021/04/14 05:31:18;;;;;;;16.23;12.27;;;12.80;71.10;;;;;;5008084;28;20458;-63
2021/04/14 05:33:43;;;;;;;15.50;12.43;;;12.80;70.70;;;;;;5017838;28;20026;-63
2021/04/14 05:36:09;;;;;;;17.58;13.13;;;12.90;70.60;;;;;;4999552;28;20033;-63
2021/04/14 05:38:35;;;;;;;17.15;12.65;;;13.00;70.40;;;;;;5016031;28;20568;-63
2021/04/14 05:41:01;;;;;;;21.70;13.88;;;13.20;70.00;;;;;;5010375;28;20595;-63
2021/04/14 05:43:37;;;;;;;17.98;12.95;;;13.30;69.10;;;;;;5009734;28;20034;-62
2021/04/14 05:46:06;;;;;;;18.45;12.38;;;13.50;69.00;;;;;;5013091;28;20460;-63
2021/04/14 05:48:32;;;;;;;17.13;12.82;;;13.70;68.50;;;;;;5005297;28;20065;-66
2021/04/14 05:51:04;;;;;;;14.80;12.45;;;13.90;67.90;;;;;;5003831;28;20076;-66
2021/04/14 05:53:33;;;;;;;19.60;12.82;;;14.10;67.20;;;;;;5004078;28;20030;-65
2021/04/14 05:56:00;;;;;;;16.67;12.20;;;14.10;67.00;;;;;;5005384;28;20049;-64
2021/04/14 05:58:27;;;;;;;15.57;12.70;;;14.00;66.10;;;;;;5006431;28;20034;-64
2021/04/14 06:00:53;;;;;;;15.85;11.63;;;14.00;65.80;;;;;;5008940;28;20037;-64
2021/04/14 06:03:20;;;;;;;18.20;12.43;;;13.80;65.90;;;;;;5004190;28;20037;-64
2021/04/14 06:05:46;;;;;;;16.73;12.18;;;13.70;66.10;;;;;;4994207;28;20437;-64
2021/04/14 06:08:11;;;;;;;15.50;12.15;;;13.70;66.50;;;;;;5000373;28;20036;-64
2021/04/14 06:10:37;;;;;;;17.40;11.77;;;13.70;66.60;;;;;;5003886;28;20030;-64
2021/04/14 06:13:03;;;;;;;18.38;12.70;;;13.70;66.20;;;;;;4998032;28;20038;-64
2021/04/14 06:15:31;;;;;;;18.33;11.40;;;13.70;66.30;;;;;;5002588;28;20030;-64
2021/04/14 06:17:58;;;;;;;14.85;11.55;;;13.70;66.10;;;;;;4996490;28;20042;-63
2021/04/14 06:20:26;;;;;;;17.42;11.65;;;13.80;66.20;;;;;;4996493;28;20037;-64
2021/04/14 06:22:52;;;;;;;15.82;11.80;;;13.90;66.10;;;;;;4994178;28;20485;-63
2021/04/14 06:25:20;;;;;;;14.88;11.57;;;13.90;65.70;;;;;;5002009;28;20050;-64
2021/04/14 06:30:17;;;;;;;16.13;11.82;;;14.10;65.10;;;;;;4998555;28;20565;-64
2021/04/14 06:32:44;;;;;;;17.27;11.40;;;14.20;65.10;;;;;;5003059;28;20458;-64
2021/04/14 06:35:10;;;;;;;17.95;12.45;;;14.20;64.80;;;;;;5002208;28;20069;-64
2021/04/14 06:37:36;;;;;;;16.65;11.77;;;14.30;64.40;;;;;;5004837;28;20485;-65
2021/04/14 06:42:54;;;;;;;14.68;11.60;;;14.50;63.90;;;;;;5003319;28;20056;-64
2021/04/14 06:45:25;;;;;;;14.07;10.57;;;14.60;63.70;;;;;;5001120;28;20362;-64
2021/04/14 06:48:02;;;;;;;12.30;9.98;;;14.60;63.20;;;;;;5001669;28;20104;-64
2021/04/14 06:50:37;;;;;;;16.15;10.55;;;14.70;63.20;;;;;;4998686;28;20101;-65
2021/04/14 06:53:06;;;;;;;14.30;11.13;;;14.70;63.00;;;;;;5003212;28;21787;-64
2021/04/14 06:55:46;;;;;;;13.18;10.52;;;14.70;62.60;;;;;;5002581;28;20030;-65
2021/04/14 06:58:19;;;;;;;12.32;10.00;;;14.70;62.20;;;;;;4996025;28;20033;-64
2021/04/14 07:00:51;;;;;;;16.77;11.15;;;14.70;62.20;;;;;;5003732;28;20038;-64
2021/04/14 07:03:28;;;;;;;16.45;12.57;;;14.70;62.40;;;;;;4997038;28;20038;-64
2021/04/14 07:06:01;;;;;;;14.70;10.40;;;14.70;62.20;;;;;;5000752;28;20064;-64
2021/04/14 07:08:40;;;;;;;14.73;10.27;;;14.60;62.10;;;;;;4992785;28;20038;-64
2021/04/14 07:11:08;;;;;;;14.00;10.85;;;14.50;61.90;;;;;;4997315;28;20033;-64
2021/04/14 07:13:37;;;;;;;12.18;9.82;;;14.40;62.10;;;;;;4996653;28;20021;-65
2021/04/14 07:16:21;;;;;;;13.13;9.85;;;14.40;62.80;;;;;;5002079;28;20065;-64
2021/04/14 07:19:00;;;;;;;14.18;10.95;;;14.40;62.70;;;;;;5002118;28;20037;-64
2021/04/14 07:21:41;;;;;;;11.23;9.07;;;14.40;62.00;;;;;;4997358;28;20945;-64
2021/04/14 07:24:28;;;;;;;11.88;8.52;;;14.40;62.70;;;;;;4998521;28;20037;-64
2021/04/14 07:27:15;;;;;;;11.52;9.07;;;14.40;62.50;;;;;;5000696;28;20149;-64
2021/04/14 07:29:51;;;;;;;11.00;8.57;;;14.50;62.40;;;;;;4983099;28;20478;-64
2021/04/14 07:32:32;;;;;;;13.15;8.45;;;14.50;61.60;;;;;;4996143;28;20037;-64
2021/04/14 07:35:01;;;;;;;;;;;14.60;61.40;;;;;;5002222;28;20028;-64
2021/04/14 07:37:38;;;;;;;12.00;7.72;;;14.50;61.10;;;;;;5002190;28;19913;-64
2021/04/14 07:40:28;;;;;;;10.52;7.80;;;14.50;61.70;;;;;;4981244;28;20033;-64
2021/04/14 07:43:12;;;;;;;9.95;7.65;;;14.60;61.50;;;;;;4998926;28;20033;-65
2021/04/14 07:45:39;;;;;;;11.00;7.65;;;14.70;61.40;;;;;;4997325;28;20116;-64
2021/04/14 07:48:14;;;;;;;10.48;7.57;;;14.80;61.30;;;;;;4992712;28;20034;-64
2021/04/14 07:50:45;;;;;;;10.52;8.65;;;14.90;61.10;;;;;;4996298;28;20037;-64
2021/04/14 07:53:15;;;;;;;10.85;8.38;;;15.00;60.70;;;;;;4996059;28;20526;-64
2021/04/14 07:55:41;;;;;;;9.25;7.70;;;15.10;60.80;;;;;;4999331;28;20030;-64
2021/04/14 07:58:13;;;;;;;9.60;7.32;;;15.20;60.50;;;;;;4992224;28;20034;-64
2021/04/14 08:00:45;;;;;;;9.77;7.90;;;15.20;60.00;;;;;;4994940;28;20037;-65
2021/04/14 08:03:26;;;;;;;9.95;7.57;;;15.30;59.70;;;;;;4980345;28;20072;-64
2021/04/14 08:05:52;;;;;;;11.90;7.72;;;15.30;59.90;;;;;;4994281;28;20057;-65
2021/04/14 08:08:28;;;;;;;10.80;7.55;;;15.30;59.80;;;;;;4997978;28;20650;-64
2021/04/14 08:11:07;;;;;;;9.55;8.20;;;15.40;59.90;;;;;;4996302;28;20053;-65
2021/04/14 08:13:40;;;;;;;12.43;8.48;;;15.50;59.40;;;;;;5002272;28;20097;-64
2021/04/14 08:16:35;;;;;;;11.80;9.38;;;15.50;59.50;;;;;;4996463;28;20027;-64
2021/04/14 08:19:05;;;;;;;12.77;9.30;;;15.60;60.30;;;;;;4999750;28;20026;-64
2021/04/14 08:21:36;;;;;;;11.88;8.85;;;15.50;60.70;;;;;;4997093;28;20783;-64
2021/04/14 08:24:12;;;;;;;15.13;10.17;;;15.40;61.20;;;;;;4994109;28;20084;-64
2021/04/14 08:26:57;;;;;;;12.48;8.98;;;15.30;61.80;;;;;;4984499;28;20040;-64
2021/04/14 08:29:22;;;;;;;11.95;9.52;;;15.20;62.20;;;;;;4994928;28;20084;-64
2021/04/14 08:31:50;;;;;;;11.27;9.25;;;15.00;62.90;;;;;;4995366;28;20904;-65
2021/04/14 08:34:24;;;;;;;12.25;10.38;;;14.90;63.50;;;;;;4996365;28;20056;-64
2021/04/14 08:37:18;;;;;;;14.32;9.48;;;14.70;63.80;;;;;;4998538;28;20513;-64
2021/04/14 08:39:59;;;;;;;13.52;10.70;;;14.50;64.10;;;;;;4971119;28;20050;-64
2021/04/14 08:42:38;;;;;;;11.20;9.15;;;14.40;64.60;;;;;;4998573;28;20036;-64
2021/04/14 08:45:04;;;;;;;14.13;10.23;;;14.30;65.10;;;;;;5001907;28;20593;-64
2021/04/14 08:47:33;;;;;;;13.15;10.25;;;14.20;65.40;;;;;;4995667;28;20038;-64
2021/04/14 08:50:08;;;;;;;15.68;10.63;;;14.10;66.00;;;;;;4993415;28;20040;-64
2021/04/14 08:52:43;;;;;;;15.13;10.55;;;14.10;66.60;;;;;;4993101;28;20022;-64
2021/04/14 08:55:12;;;;;;;10.95;8.98;;;13.90;66.30;;;;;;4996406;28;20037;-64
2021/04/14 08:57:38;;;;;;;13.38;9.90;;;13.80;66.50;;;;;;4994690;28;20049;-64
2021/04/14 09:00:06;;;;;;;12.98;9.02;;;13.70;66.60;;;;;;4992833;28;20029;-64
2021/04/14 09:02:32;;;;;;;13.90;9.90;;;13.60;66.90;;;;;;4998890;28;20052;-64
2021/04/14 09:04:58;;;;;;;10.82;9.32;;;13.50;66.90;;;;;;4993722;28;20065;-64
2021/04/14 09:07:32;;;;;;;16.20;11.23;;;13.40;67.20;;;;;;4998740;28;20142;-63
2021/04/14 09:09:58;;;;;;;12.05;10.23;;;13.30;67.40;;;;;;4994727;28;20099;-64
2021/04/14 09:12:36;;;;;;;12.05;9.63;;;13.20;68.10;;;;;;5000375;28;20038;-64
2021/04/14 09:15:11;;;;;;;11.25;9.18;;;13.00;68.00;;;;;;5001355;28;20038;-64
2021/04/14 09:17:38;;;;;;;14.52;10.10;;;13.00;68.80;;;;;;4997695;28;20076;-64
2021/04/14 09:20:22;;;;;;;13.35;10.60;;;12.90;69.00;;;;;;4999543;28;20030;-64
2021/04/14 09:23:27;;;;;;;15.88;9.55;;;12.80;69.50;;;;;;4997392;28;20041;-65
2021/04/14 09:25:52;;;;;;;12.02;9.48;;;12.80;69.70;;;;;;4985945;28;20145;-65
2021/04/14 09:28:42;;;;;;;10.63;9.18;;;12.80;69.40;;;;;;4995677;28;20034;-64
2021/04/14 09:31:15;;;;;;;11.05;9.43;;;12.80;70.10;;;;;;5001927;28;20033;-65
2021/04/14 09:33:50;;;;;;;12.57;9.30;;;12.80;69.90;;;;;;4998872;28;20113;-65
2021/04/14 09:36:30;;;;;;;11.52;9.23;;;12.70;69.70;;;;;;4996671;28;20524;-64
2021/04/14 09:39:07;;;;;;;16.05;9.85;;;12.70;69.70;;;;;;5000505;28;20025;-65
2021/04/14 09:41:36;;;;;;;11.85;9.43;;;12.70;69.80;;;;;;4997538;28;20034;-64
2021/04/14 09:44:31;;;;;;;12.90;10.45;;;12.80;69.90;;;;;;5002093;28;20260;-64
2021/04/14 09:47:11;;;;;;;12.90;9.82;;;12.80;69.80;;;;;;4994513;28;20370;-64
2021/04/14 09:49:43;;;;;;;12.55;8.98;;;12.70;70.00;;;;;;4994920;28;20022;-64
2021/04/14 09:52:27;;;;;;;11.43;8.85;;;12.70;70.30;;;;;;4998120;28;20109;-64
2021/04/14 09:54:58;;;;;;;9.73;8.55;;;12.70;70.50;;;;;;5000956;28;20085;-64
2021/04/14 09:57:29;;;;;;;12.93;9.52;;;12.70;70.50;;;;;;4998959;28;20026;-64
2021/04/14 09:59:57;;;;;;;10.38;8.52;;;12.80;70.40;;;;;;4996583;28;20061;-65
2021/04/14 10:02:27;;;;;;;10.05;8.30;;;12.80;70.20;;;;;;4995910;28;20103;-64
2021/04/14 10:04:53;;;;;;;14.18;9.68;;;12.90;69.80;;;;;;4999823;28;20119;-65
2021/04/14 10:07:27;;;;;;;11.57;9.10;;;12.90;68.80;;;;;;4996432;28;20728;-64
2021/04/14 10:10:11;;;;;;;13.70;9.18;;;12.90;68.50;;;;;;4997724;28;20026;-65
2021/04/14 10:12:38;;;;;;;13.30;8.60;;;12.90;68.30;;;;;;4998426;28;20030;-65
2021/04/14 10:15:06;;;;;;;11.80;9.25;;;12.90;68.80;;;;;;4998476;28;20030;-64
2021/04/14 10:17:33;;;;;;;14.88;8.75;;;12.90;68.80;;;;;;4996190;28;20432;-64
2021/04/14 10:20:08;;;;;;;18.00;10.30;;;12.80;68.80;;;;;;5000943;28;22383;-64
2021/04/14 10:22:40;;;;;;;13.93;11.13;;;12.90;68.60;;;;;;5000187;28;20040;-65
2021/04/14 10:25:25;;;;;;;12.98;9.20;;;12.90;68.60;;;;;;4998813;28;20084;-64
2021/04/14 10:28:17;;;;;;;12.15;10.00;;;12.80;69.00;;;;;;4995777;28;20040;-64
2021/04/14 10:30:44;;;;;;;;;;;12.70;69.30;;;;;;5000951;28;20029;-64
2021/04/14 10:33:21;;;;;;;13.75;9.57;;;12.60;69.70;;;;;;4993321;28;19945;-64
2021/04/14 10:35:49;;;;;;;12.43;9.68;;;12.60;70.20;;;;;;4997623;28;20108;-63
2021/04/14 10:38:30;;;;;;;13.07;9.20;;;12.60;70.30;;;;;;4998277;28;20034;-64
2021/04/14 10:40:55;;;;;;;13.93;9.45;;;12.60;70.30;;;;;;4993317;28;20858;-63
2021/04/14 10:43:24;;;;;;;14.38;10.70;;;12.60;70.40;;;;;;4989562;28;20042;-65
2021/04/14 10:46:23;;;;;;;13.82;9.90;;;12.70;70.60;;;;;;4976580;28;20564;-65
2021/04/14 10:48:56;;;;;;;13.32;9.68;;;12.70;70.20;;;;;;4995549;28;20042;-63
2021/04/14 10:51:31;;;;;;;12.73;9.38;;;12.70;70.20;;;;;;4995260;28;20026;-64
2021/04/14 10:53:58;;;;;;;10.65;8.27;;;12.80;70.00;;;;;;4990858;28;20030;-65
2021/04/14 10:56:31;;;;;;;12.25;8.73;;;12.90;69.70;;;;;;4999052;28;20041;-63
2021/04/14 10:59:04;;;;;;;11.05;9.43;;;13.00;69.20;;;;;;4990929;28;20044;-63
2021/04/14 11:01:39;;;;;;;12.38;8.45;;;13.00;69.30;;;;;;4994376;28;20056;-63
2021/04/14 11:04:15;;;;;;;17.63;9.52;;;13.00;68.60;;;;;;4991720;28;20046;-63
2021/04/14 11:06:42;;;;;;;9.88;8.13;;;13.00;68.50;;;;;;4996677;28;20033;-63
2021/04/14 11:09:10;;;;;;;10.27;7.65;;;12.90;68.60;;;;;;4996445;28;20029;-63
2021/04/14 11:11:37;;;;;;;10.57;8.88;;;12.90;68.90;;;;;;4996325;28;20029;-63
2021/04/14 11:14:06;;;;;;;12.07;9.32;;;12.90;68.90;;;;;;4999836;28;20044;-63
2021/04/14 11:16:33;;;;;;;11.25;8.60;;;12.90;68.90;;;;;;4993370;28;20030;-63
2021/04/14 11:19:09;;;;;;;10.05;8.07;;;12.80;69.00;;;;;;4997797;28;20107;-63
2021/04/14 11:21:34;;;;;;;10.02;7.63;;;12.70;69.30;;;;;;4999776;28;20385;-63
2021/04/14 11:24:05;;;;;;;14.02;9.27;;;12.70;69.60;;;;;;4996893;28;20034;-63
2021/04/14 11:26:31;;;;;;;10.95;9.07;;;12.80;69.70;;;;;;4992906;28;20317;-63
2021/04/14 11:28:57;;;;;;;12.73;9.10;;;12.70;69.70;;;;;;4992329;28;20026;-63
2021/04/14 11:31:34;;;;;;;12.85;9.00;;;12.80;70.00;;;;;;4996506;28;20034;-63
2021/04/14 11:34:23;;;;;;;11.80;9.10;;;12.80;69.70;;;;;;4995917;28;20859;-65
2021/04/14 11:37:20;;;;;;;10.57;8.65;;;12.90;69.40;;;;;;4997125;28;20402;-66
2021/04/14 11:39:49;;;;;;;10.80;8.38;;;12.90;69.50;;;;;;4997516;28;20045;-65
2021/04/14 11:42:17;;;;;;;10.88;8.88;;;12.90;70.00;;;;;;4997987;28;20030;-62
2021/04/14 11:44:44;;;;;;;12.30;9.50;;;12.90;69.20;;;;;;4995690;28;20034;-65
2021/04/14 11:47:31;;;;;;;12.77;8.77;;;12.90;69.10;;;;;;4989039;28;20069;-66
2021/04/14 11:50:28;;;;;;;11.40;8.00;;;12.90;69.60;;;;;;4991515;28;20030;-66
2021/04/14 11:52:58;;;;;;;11.07;9.10;;;13.00;69.50;;;;;;4994848;28;20033;-63
2021/04/14 11:55:27;;;;;;;10.73;8.98;;;13.00;69.50;;;;;;4994707;28;20029;-64
2021/04/14 11:58:00;;;;;;;9.65;8.02;;;13.00;69.50;;;;;;4996027;28;20113;-64
2021/04/14 12:00:39;;;;;;;9.45;8.45;;;13.10;69.20;;;;;;4986326;28;21026;-64
2021/04/14 12:03:38;;;;;;;11.38;8.80;;;13.10;69.20;;;;;;4978529;28;20081;-64
2021/04/14 12:06:05;;;;;;;12.07;9.25;;;13.10;69.30;;;;;;4984908;28;20041;-64
2021/04/14 12:08:31;;;;;;;12.38;8.40;;;13.10;69.10;;;;;;4972085;28;20512;-64
2021/04/14 12:10:58;;;;;;;10.85;8.32;;;13.20;69.10;;;;;;4997003;28;20022;-64
2021/04/14 12:13:24;;;;;;;11.55;8.32;;;13.20;69.10;;;;;;4996054;28;20470;-64
2021/04/14 12:15:50;;;;;;;9.38;7.95;;;13.20;69.00;;;;;;4996560;28;20033;-64
2021/04/14 12:18:17;;;;;;;12.57;8.70;;;13.20;69.10;;;;;;4995420;28;20041;-64
2021/04/14 12:20:42;;;;;;;12.50;8.48;;;13.20;68.90;;;;;;4990534;28;20076;-64
2021/04/14 12:23:09;;;;;;;11.73;9.07;;;13.30;68.60;;;;;;4998278;28;20490;-64
2021/04/14 12:25:34;;;;;;;10.65;8.02;;;13.30;68.50;;;;;;4996734;28;20072;-64
2021/04/14 12:28:00;;;;;;;15.73;8.40;;;13.30;68.40;;;;;;4999479;28;20042;-64
2021/04/14 12:30:27;;;;;;;9.90;7.82;;;13.20;68.50;;;;;;4996516;28;20065;-64
2021/04/14 12:32:53;;;;;;;9.93;8.40;;;13.20;68.60;;;;;;4996297;28;20054;-64
2021/04/14 12:35:21;;;;;;;12.55;7.88;;;13.20;68.30;;;;;;5001064;28;20040;-64
2021/04/14 12:37:47;;;;;;;14.88;7.60;;;13.30;69.00;;;;;;5000251;28;20038;-64
2021/04/14 12:40:14;;;;;;;13.13;8.10;;;13.30;68.10;;;;;;4994865;28;20037;-64
2021/04/14 12:42:40;;;;;;;9.57;7.70;;;13.30;67.90;;;;;;4999602;28;20447;-64
2021/04/14 12:45:35;;;;;;;10.32;7.68;;;13.30;67.90;;;;;;4999431;28;20775;-64
2021/04/14 12:48:01;;;;;;;14.13;7.47;;;13.40;67.40;;;;;;4994504;28;20186;-64
2021/04/14 12:50:27;;;;;;;11.45;8.52;;;13.40;67.60;;;;;;4991796;28;20578;-63